Time;durP1;ratioP1;P1;durP2;ratioP2;P2;SDS_P1;SDS_P2;PMS_P1;PMS_P2;Temp;Humidity;BMP_temperature;BMP_pressure;BME280_temperature;BME280_humidity;BME280_pressure;Samples;Min_cycle;Max_cycle;Signal;HPM_P1;HPM_P2
2022/03/04 00:00:21;;;;;;;;;23.75;23.50;;;;;5.13;56.21;101940.16;5043624;28;11506;-71
2022/03/04 00:02:47;;;;;;;;;20.75;18.75;;;;;5.18;56.39;101938.78;5058850;28;11500;-70
2022/03/04 00:05:14;;;;;;;;;25.00;20.25;;;;;5.06;56.67;101937.13;5051142;28;11523;-70
2022/03/04 00:07:40;;;;;;;;;20.00;19.50;;;;;5.04;56.61;101939.09;5052698;28;11538;-71
2022/03/04 00:10:07;;;;;;;;;26.50;22.25;;;;;5.04;56.61;101941.78;5051276;28;11501;-70
2022/03/04 00:12:33;;;;;;;;;22.25;22.25;;;;;4.99;56.56;101943.13;5049212;28;12233;-71
2022/03/04 00:15:00;;;;;;;;;24.75;22.75;;;;;4.95;56.99;101950.56;5052345;28;11482;-71
2022/03/04 00:17:26;;;;;;;;;28.75;24.25;;;;;4.90;56.83;101945.56;5054868;28;11460;-71
2022/03/04 00:19:53;;;;;;;;;24.00;22.50;;;;;4.94;56.38;101947.03;5071880;28;11508;-71
2022/03/04 00:22:19;;;;;;;;;16.75;16.75;;;;;4.97;56.36;101950.47;5072190;28;11484;-72
2022/03/04 00:24:46;;;;;;;;;20.25;19.50;;;;;4.89;56.16;101946.56;5064792;28;11499;-71
2022/03/04 00:27:12;;;;;;;;;29.25;26.25;;;;;4.85;56.50;101950.47;5047395;28;11510;-71
2022/03/04 00:29:39;;;;;;;;;19.25;16.25;;;;;4.84;57.13;101956.81;5051235;28;12180;-72
2022/03/04 00:32:05;;;;;;;;;22.00;21.50;;;;;4.80;57.13;101954.50;5068364;28;11489;-71
2022/03/04 00:34:32;;;;;;;;;18.00;15.00;;;;;4.85;56.92;101952.28;5065459;28;11505;-71
2022/03/04 00:37:00;;;;;;;;;32.75;23.00;;;;;4.81;57.10;101950.84;5058207;28;11600;-71
2022/03/04 00:39:26;;;;;;;;;18.00;15.25;;;;;4.84;57.22;101950.59;5042080;28;11659;-72
2022/03/04 00:41:53;;;;;;;;;18.25;15.50;;;;;4.78;57.12;101964.50;5049565;28;11571;-72
2022/03/04 00:44:19;;;;;;;;;17.25;16.00;;;;;4.69;57.20;101962.53;5052508;28;11588;-72
2022/03/04 00:46:46;;;;;;;;;23.25;18.75;;;;;4.69;57.57;101957.19;5052639;28;11459;-72
2022/03/04 00:49:13;;;;;;;;;26.50;22.00;;;;;4.56;58.02;101946.59;5050620;28;11603;-71
2022/03/04 00:51:39;;;;;;;;;32.00;23.25;;;;;4.57;57.86;101951.00;5050178;28;11545;-71
2022/03/04 00:54:05;;;;;;;;;25.75;18.75;;;;;4.62;57.85;101951.47;5034782;28;11534;-72
2022/03/04 00:56:32;;;;;;;;;22.50;21.50;;;;;4.46;58.21;101946.50;5047204;28;11611;-72
2022/03/04 00:58:59;;;;;;;;;17.00;12.50;;;;;4.54;58.23;101951.25;5050714;28;11490;-71
2022/03/04 01:01:25;;;;;;;;;22.25;15.50;;;;;4.54;58.27;101951.25;5033414;28;11550;-72
2022/03/04 01:03:52;;;;;;;;;26.25;19.25;;;;;4.54;57.99;101954.78;5049955;28;12252;-72
2022/03/04 01:06:18;;;;;;;;;26.75;22.00;;;;;4.37;58.83;101954.41;5048511;28;11496;-70
2022/03/04 01:08:45;;;;;;;;;26.50;21.25;;;;;4.39;58.82;101953.31;5046599;28;11487;-71
2022/03/04 01:11:13;;;;;;;;;26.75;24.25;;;;;4.40;59.17;101948.78;5057510;28;11560;-70
2022/03/04 01:13:39;;;;;;;;;25.25;18.25;;;;;4.43;59.19;101952.06;5050872;28;11594;-71
2022/03/04 01:16:06;;;;;;;;;30.50;25.25;;;;;4.37;58.80;101952.56;5048717;28;11483;-71
2022/03/04 01:18:32;;;;;;;;;20.00;19.75;;;;;4.33;59.09;101948.44;5049127;28;11672;-71
2022/03/04 01:21:00;;;;;;;;;21.25;21.25;;;;;4.30;59.43;101952.22;5043975;28;11499;-71
2022/03/04 01:23:26;;;;;;;;;31.00;26.00;;;;;4.36;59.08;101961.59;5040829;28;11501;-72
2022/03/04 01:25:53;;;;;;;;;24.75;21.00;;;;;4.33;59.20;101959.16;5050025;28;11582;-72
2022/03/04 01:28:20;;;;;;;;;21.75;19.25;;;;;4.26;59.67;101950.75;5032500;28;11436;-71
2022/03/04 01:30:47;;;;;;;;;24.50;22.00;;;;;4.25;59.64;101954.41;5049191;28;11532;-70
2022/03/04 01:33:14;;;;;;;;;27.50;22.00;;;;;4.24;59.74;101958.06;5048972;28;11510;-71
2022/03/04 01:35:42;;;;;;;;;23.50;19.00;;;;;4.22;59.71;101953.81;5040237;28;11590;-71
2022/03/04 01:38:08;;;;;;;;;24.50;17.75;;;;;4.25;60.01;101959.78;5050524;28;11489;-71
2022/03/04 01:40:35;;;;;;;;;29.50;21.50;;;;;4.30;59.87;101957.56;5049655;28;11460;-71
2022/03/04 01:43:02;;;;;;;;;25.00;21.25;;;;;4.21;60.00;101954.75;5050326;28;11587;-72
2022/03/04 01:45:29;;;;;;;;;19.25;17.00;;;;;4.14;60.31;101961.56;5050406;28;11578;-71
2022/03/04 01:47:56;;;;;;;;;21.25;16.75;;;;;4.12;60.44;101955.47;5046056;28;11563;-71
2022/03/04 01:50:26;;;;;;;;;24.50;20.00;;;;;4.04;60.95;101955.22;5037347;28;11530;-70
2022/03/04 01:52:53;;;;;;;;;26.50;18.50;;;;;4.04;61.08;101953.41;5049970;28;12243;-71
2022/03/04 01:55:20;;;;;;;;;20.00;17.75;;;;;4.07;60.97;101946.94;5050191;28;12234;-71
2022/03/04 01:57:47;;;;;;;;;18.00;15.50;;;;;4.10;60.76;101946.69;5050458;28;11581;-71
2022/03/04 02:00:15;;;;;;;;;23.00;20.75;;;;;4.08;60.66;101937.94;5049254;28;12168;-71
2022/03/04 02:02:43;;;;;;;;;15.00;14.25;;;;;4.10;60.71;101939.53;5032199;28;11510;-71
2022/03/04 02:05:15;;;;;;;;;20.00;15.50;;;;;3.96;61.17;101937.91;5043894;28;11648;-72
2022/03/04 02:07:42;;;;;;;;;25.00;20.50;;;;;3.94;61.32;101939.84;5041983;28;12139;-72
2022/03/04 02:10:09;;;;;;;;;21.25;21.00;;;;;3.94;61.82;101939.84;5048912;28;11537;-71
2022/03/04 02:12:37;;;;;;;;;22.75;16.00;;;;;3.95;61.86;101940.69;5048796;28;11479;-71
2022/03/04 02:15:05;;;;;;;;;25.25;19.50;;;;;4.00;61.52;101933.19;5049046;28;12344;-71
2022/03/04 02:17:31;;;;;;;;;17.75;16.00;;;;;3.96;61.52;101942.41;5033017;28;11589;-71
2022/03/04 02:19:59;;;;;;;;;18.75;16.00;;;;;3.92;61.51;101939.13;5029256;28;11479;-71
2022/03/04 02:22:25;;;;;;;;;18.00;15.00;;;;;3.82;61.62;101950.69;5048928;28;11533;-71
2022/03/04 02:24:52;;;;;;;;;17.75;17.00;;;;;3.78;62.37;101949.22;5048810;28;11521;-71
2022/03/04 02:27:18;;;;;;;;;21.00;18.25;;;;;3.77;62.34;101950.19;5050172;28;11485;-72
2022/03/04 02:29:45;;;;;;;;;11.75;7.75;;;;;3.76;62.37;101952.00;5050229;28;11452;-71
2022/03/04 02:32:13;;;;;;;;;16.25;16.25;;;;;3.70;62.47;101947.09;5047370;28;11548;-72
2022/03/04 02:34:39;;;;;;;;;20.25;18.00;;;;;3.71;62.82;101946.97;5047856;28;11510;-70
2022/03/04 02:37:06;;;;;;;;;22.75;21.00;;;;;3.68;62.57;101946.38;5038005;28;11494;-70
2022/03/04 02:39:33;;;;;;;;;21.50;20.25;;;;;3.70;62.33;101947.09;5047265;28;11553;-72
2022/03/04 02:41:59;;;;;;;;;14.00;13.75;;;;;3.70;62.77;101941.75;5028629;28;11662;-70
2022/03/04 02:44:26;;;;;;;;;16.50;13.50;;;;;3.67;62.66;101942.84;5039543;28;12222;-71
2022/03/04 02:46:52;;;;;;;;;17.75;13.50;;;;;3.63;63.16;101937.84;5053812;28;11591;-71
2022/03/04 02:49:19;;;;;;;;;16.25;14.00;;;;;3.64;63.12;101943.06;5051533;28;11569;-71
2022/03/04 02:51:45;;;;;;;;;23.50;18.00;;;;;3.64;63.52;101939.53;5051133;28;11638;-72
2022/03/04 02:54:12;;;;;;;;;14.00;12.25;;;;;3.56;63.24;101941.97;5053649;28;12208;-71
2022/03/04 02:56:38;;;;;;;;;20.00;16.00;;;;;3.53;63.77;101935.00;5060310;28;11476;-72
2022/03/04 02:59:05;;;;;;;;;17.00;16.25;;;;;3.62;63.71;101936.97;5073622;28;11540;-71
2022/03/04 03:01:31;;;;;;;;;22.75;19.50;;;;;3.52;63.58;101929.78;5073234;28;11565;-71
2022/03/04 03:03:58;;;;;;;;;24.00;20.75;;;;;3.55;63.95;101930.41;5071172;28;11435;-71
2022/03/04 03:06:24;;;;;;;;;24.75;20.00;;;;;3.47;63.94;101923.91;5043412;28;11573;-71
2022/03/04 03:08:51;;;;;;;;;30.25;19.50;;;;;3.40;64.28;101928.88;5053375;28;11545;-70
2022/03/04 03:11:17;;;;;;;;;21.00;16.00;;;;;3.37;64.59;101927.28;5051868;28;11546;-71
2022/03/04 03:13:44;;;;;;;;;27.50;19.00;;;;;3.36;65.21;101924.72;5053346;28;11567;-71
2022/03/04 03:16:10;;;;;;;;;19.75;17.25;;;;;3.39;65.04;101928.00;5053301;28;11564;-70
2022/03/04 03:18:37;;;;;;;;;19.75;16.75;;;;;3.30;64.70;101930.53;5052484;28;11607;-71
2022/03/04 03:21:04;;;;;;;;;20.25;20.00;;;;;3.24;65.23;101933.69;5048303;28;11555;-72
2022/03/04 03:23:30;;;;;;;;;23.00;23.00;;;;;3.24;65.34;101931.88;5051840;28;11573;-71
2022/03/04 03:25:56;;;;;;;;;28.50;17.00;;;;;3.24;65.41;101936.38;5052842;28;11583;-70
2022/03/04 03:28:23;;;;;;;;;26.75;22.50;;;;;3.22;65.57;101938.28;5053033;28;11549;-70
2022/03/04 03:30:50;;;;;;;;;31.75;21.00;;;;;3.21;65.61;101937.41;5051774;28;11716;-71
2022/03/04 03:33:16;;;;;;;;;18.25;17.75;;;;;3.21;65.40;101937.41;5051504;28;11614;-71
2022/03/04 03:35:43;;;;;;;;;26.75;24.75;;;;;3.25;65.18;101946.09;5051494;28;11601;-68
2022/03/04 03:38:10;;;;;;;;;19.75;17.50;;;;;3.22;65.38;101946.28;5051654;28;11616;-71
2022/03/04 03:40:36;;;;;;;;;13.75;12.75;;;;;3.21;65.38;101942.78;5045137;28;11525;-71
2022/03/04 03:43:23;;;;;;;;;18.25;16.50;;;;;3.16;65.61;101946.75;5050960;28;11672;-70
2022/03/04 03:45:50;;;;;;;;;26.50;23.25;;;;;3.16;65.81;101938.72;5052616;28;11655;-71
2022/03/04 03:48:17;;;;;;;;;22.00;18.75;;;;;3.18;65.93;101931.44;5027347;28;11556;-71
2022/03/04 03:50:43;;;;;;;;;23.00;20.50;;;;;3.23;66.05;101940.88;5047919;28;11561;-71
2022/03/04 03:53:09;;;;;;;;;26.50;20.00;;;;;3.22;66.06;101933.81;5051191;28;11690;-71
2022/03/04 03:55:36;;;;;;;;;21.75;19.75;;;;;3.21;66.29;101940.09;5066546;28;11542;-70
2022/03/04 03:58:02;;;;;;;;;27.50;23.50;;;;;3.18;66.29;101942.16;5067949;28;11631;-68
2022/03/04 04:00:29;;;;;;;;;29.00;19.25;;;;;3.23;66.22;101942.69;5050418;28;11651;-72
2022/03/04 04:02:55;;;;;;;;;24.00;21.75;;;;;3.16;66.49;101949.44;5051980;28;11572;-71
2022/03/04 04:05:22;;;;;;;;;25.25;22.50;;;;;3.14;66.86;101946.88;5050663;28;11603;-70
2022/03/04 04:07:48;;;;;;;;;27.50;21.00;;;;;3.13;66.83;101947.84;5050914;28;11527;-71
2022/03/04 04:10:15;;;;;;;;;26.25;25.75;;;;;3.04;67.00;101956.56;5061162;28;11589;-71
2022/03/04 04:12:41;;;;;;;;;23.00;21.25;;;;;3.03;67.26;101949.50;5050372;28;12345;-72
2022/03/04 04:15:08;;;;;;;;;30.00;25.25;;;;;2.93;67.77;101953.81;5049910;28;11536;-71
2022/03/04 04:17:34;;;;;;;;;28.50;25.00;;;;;2.97;67.85;101950.78;5050539;28;11550;-69
2022/03/04 04:20:01;;;;;;;;;35.75;26.00;;;;;2.93;67.56;101953.81;5050726;28;11625;-68
2022/03/04 04:22:27;;;;;;;;;25.25;24.50;;;;;2.99;67.89;101962.25;5051759;28;11704;-69
2022/03/04 04:24:54;;;;;;;;;27.50;25.50;;;;;3.00;67.51;101960.44;5051981;28;11685;-68
2022/03/04 04:27:20;;;;;;;;;16.50;16.00;;;;;3.02;67.66;101955.81;5045324;28;11555;-69
2022/03/04 04:29:47;;;;;;;;;15.50;15.50;;;;;2.99;67.51;101956.91;5051913;28;11654;-69
2022/03/04 04:32:13;;;;;;;;;17.00;15.50;;;;;2.99;67.63;101950.69;5046075;28;12355;-68
2022/03/04 04:34:39;;;;;;;;;26.75;22.00;;;;;2.99;67.72;101956.91;5051921;28;12357;-69
2022/03/04 04:37:07;;;;;;;;;22.00;18.00;;;;;2.87;68.10;101957.78;5051522;28;11541;-70
2022/03/04 04:39:33;;;;;;;;;28.50;21.25;;;;;2.88;68.38;101961.31;5051626;28;11546;-70
2022/03/04 04:42:00;;;;;;;;;18.25;17.50;;;;;2.91;68.23;101953.06;5055582;28;11540;-68
2022/03/04 04:44:26;;;;;;;;;24.50;22.50;;;;;2.93;68.50;101965.34;5071625;28;11537;-68
2022/03/04 04:46:53;;;;;;;;;19.25;16.00;;;;;2.91;68.92;101956.59;5059208;28;12332;-70
2022/03/04 04:49:19;;;;;;;;;28.00;22.75;;;;;2.85;68.77;101954.38;5050398;28;11558;-69
2022/03/04 04:51:46;;;;;;;;;26.25;21.75;;;;;2.77;68.70;101956.75;5049932;28;11549;-69
2022/03/04 04:54:12;;;;;;;;;24.00;20.75;;;;;2.78;69.08;101961.13;5051443;28;12413;-69
2022/03/04 04:56:39;;;;;;;;;34.75;23.00;;;;;2.72;69.34;101957.06;5051293;28;11668;-68
2022/03/04 04:59:06;;;;;;;;;18.50;16.50;;;;;2.71;69.72;101952.69;5044211;28;11698;-70
2022/03/04 05:01:32;;;;;;;;;28.50;24.00;;;;;2.74;69.80;101946.28;5048167;28;11591;-69
2022/03/04 05:03:59;;;;;;;;;25.00;20.25;;;;;2.78;69.41;101950.44;5050173;28;11558;-70
2022/03/04 05:06:26;;;;;;;;;18.25;16.75;;;;;2.75;70.23;101954.19;5050361;28;11703;-69
2022/03/04 05:08:57;;;;;;;;;20.75;19.75;;;;;2.73;69.71;101956.13;5051280;28;11526;-70
2022/03/04 05:11:23;;;;;;;;;23.75;20.00;;;;;2.65;70.54;101961.16;5050662;28;11664;-69
2022/03/04 05:13:50;;;;;;;;;20.50;20.00;;;;;2.57;70.78;101960.88;5044303;28;11587;-70
2022/03/04 05:16:16;;;;;;;;;28.75;18.50;;;;;2.63;70.83;101955.06;5047313;28;11536;-70
2022/03/04 05:18:43;;;;;;;;;19.75;19.25;;;;;2.62;70.82;101961.38;5047468;28;11558;-69
2022/03/04 05:21:10;;;;;;;;;22.75;20.00;;;;;2.62;70.62;101964.06;5050422;28;11557;-71
2022/03/04 05:26:21;;;;;;;;;22.00;18.50;;;;;2.60;71.15;101967.81;5050858;28;11656;-69
2022/03/04 05:28:47;;;;;;;;;24.25;22.25;;;;;2.55;71.29;101970.81;5049522;28;11645;-69
2022/03/04 05:31:14;;;;;;;;;21.50;18.50;;;;;2.55;71.17;101969.97;5050494;28;12602;-69
2022/03/04 05:33:40;;;;;;;;;20.25;17.00;;;;;2.52;71.37;101973.72;5025040;28;11681;-69
2022/03/04 05:36:07;;;;;;;;;21.00;16.25;;;;;2.54;71.72;101969.09;5049279;28;11565;-69
2022/03/04 05:38:34;;;;;;;;;29.00;19.25;;;;;2.48;71.65;101969.53;5065969;28;11545;-70
2022/03/04 05:41:01;;;;;;;;;18.50;18.25;;;;;2.46;71.71;101966.94;5050278;28;11618;-69
2022/03/04 05:43:27;;;;;;;;;24.25;16.50;;;;;2.41;72.01;101973.59;5049132;28;11682;-69
2022/03/04 05:45:54;;;;;;;;;21.50;18.25;;;;;2.36;72.29;101981.09;5049156;28;11581;-69
2022/03/04 05:48:25;;;;;;;;;23.25;18.75;;;;;2.44;72.48;101970.69;5044908;28;11528;-70
2022/03/04 05:50:52;;;;;;;;;2.00;1.00;;;;;2.39;72.52;101971.03;5050044;28;11536;-69
2022/03/04 05:53:18;;;;;;;;;20.00;20.00;;;;;2.37;72.40;101977.44;5050429;28;11570;-69
2022/03/04 05:55:45;;;;;;;;;29.75;19.50;;;;;2.31;72.57;101973.41;5049275;28;11576;-70
2022/03/04 05:58:11;;;;;;;;;30.25;23.50;;;;;2.28;73.44;101981.63;5043601;28;11565;-70
2022/03/04 06:00:38;;;;;;;;;19.00;18.00;;;;;2.23;73.14;101974.88;5044804;28;11638;-66
2022/03/04 06:03:05;;;;;;;;;22.50;19.75;;;;;2.24;73.50;101968.59;5049047;28;12266;-67
2022/03/04 06:05:31;;;;;;;;;24.75;20.75;;;;;2.21;73.72;101975.00;5030159;28;11579;-69
2022/03/04 06:07:58;;;;;;;;;27.25;24.75;;;;;2.11;73.84;101977.47;5030521;28;11578;-68
2022/03/04 06:10:25;;;;;;;;;28.50;24.75;;;;;2.10;74.41;101980.25;5037478;28;11539;-66
2022/03/04 06:12:52;;;;;;;;;23.00;18.50;;;;;2.18;74.03;101985.88;5036286;28;11709;-67
2022/03/04 06:15:18;;;;;;;;;28.50;24.25;;;;;2.08;74.66;101991.03;5042568;28;11585;-67
2022/03/04 06:17:49;;;;;;;;;25.50;23.75;;;;;2.07;74.69;101996.47;5041563;28;11555;-67
2022/03/04 06:20:17;;;;;;;;;25.75;22.75;;;;;2.08;74.80;101988.34;5051373;28;12242;-67
2022/03/04 06:22:44;;;;;;;;;18.50;15.75;;;;;2.15;74.86;101994.97;5057636;28;11596;-67
2022/03/04 06:25:12;;;;;;;;;18.50;18.50;;;;;2.16;74.92;101998.50;5079721;28;11646;-67
2022/03/04 06:27:55;;;;;;;;;20.75;18.00;;;;;2.10;74.64;102002.47;5040097;28;11643;-66
2022/03/04 06:30:23;;;;;;;;;24.50;21.75;;;;;2.09;75.34;102007.91;5045048;28;11545;-68
2022/03/04 06:32:51;;;;;;;;;23.50;21.50;;;;;2.10;75.01;102014.97;5044921;28;11573;-68
2022/03/04 06:35:17;;;;;;;;;27.00;24.25;;;;;2.10;75.12;102010.47;5047414;28;11549;-68
2022/03/04 06:37:44;;;;;;;;;23.50;23.25;;;;;2.12;75.03;102013.03;5045241;28;11578;-67
2022/03/04 06:40:11;;;;;;;;;25.25;20.25;;;;;2.09;75.14;102015.91;5042186;28;11689;-68
2022/03/04 06:42:37;;;;;;;;;23.00;19.75;;;;;2.12;75.38;102013.03;5045087;28;11667;-67
2022/03/04 06:45:04;;;;;;;;;22.50;19.00;;;;;2.09;75.15;102016.78;5043145;28;12228;-67
2022/03/04 06:47:31;;;;;;;;;24.75;19.75;;;;;2.10;75.22;102014.97;5044394;28;11546;-68
2022/03/04 06:49:57;;;;;;;;;22.00;21.25;;;;;2.20;75.43;102015.16;5047975;28;11547;-70
2022/03/04 06:52:24;;;;;;;;;31.25;25.25;;;;;2.83;74.45;102016.97;5039346;28;11549;-67
2022/03/04 06:54:50;;;;;;;;;19.75;19.25;;;;;3.31;72.48;102018.75;5040810;28;11609;-68
2022/03/04 06:57:17;;;;;;;;;29.50;24.25;;;;;4.22;69.53;102027.03;5042416;28;11583;-68
2022/03/04 06:59:43;;;;;;;;;24.50;21.50;;;;;4.00;67.59;102025.13;5043398;28;11583;-67
2022/03/04 07:02:12;;;;;;;;;31.50;25.25;;;;;4.17;67.00;102023.81;5045059;28;11571;-67
2022/03/04 07:04:39;;;;;;;;;25.00;21.50;;;;;4.26;66.24;102031.16;5044995;28;11611;-66
2022/03/04 07:07:05;;;;;;;;;25.75;20.75;;;;;4.11;65.97;102031.47;5052894;28;11554;-67
2022/03/04 07:09:32;;;;;;;;;23.75;20.25;;;;;4.38;66.43;102040.06;5042837;28;11559;-66
2022/03/04 07:11:58;;;;;;;;;23.50;19.50;;;;;4.32;65.03;102041.41;5049241;28;11635;-67
2022/03/04 07:14:24;;;;;;;;;24.50;21.00;;;;;4.30;65.07;102034.47;5034934;28;12289;-67
2022/03/04 07:16:51;;;;;;;;;25.50;21.25;;;;;4.26;64.88;102035.66;5050837;28;11540;-67
2022/03/04 07:19:17;;;;;;;;;28.25;24.75;;;;;4.36;65.54;102033.97;5051803;28;11547;-68
2022/03/04 07:21:44;;;;;;;;;19.50;13.75;;;;;4.41;64.16;102034.47;5049135;28;11557;-68
2022/03/04 07:24:10;;;;;;;;;26.25;24.75;;;;;4.39;63.96;102036.41;5033895;28;12243;-67
2022/03/04 07:26:38;;;;;;;;;36.00;27.25;;;;;4.24;64.14;102029.56;5032488;28;11577;-66
2022/03/04 07:29:04;;;;;;;;;29.00;23.25;;;;;4.27;64.52;102035.56;5032084;28;11554;-67
2022/03/04 07:31:30;;;;;;;;;25.25;22.75;;;;;4.23;64.35;102038.59;5032718;28;11608;-68
2022/03/04 07:33:57;;;;;;;;;33.75;28.25;;;;;4.16;64.48;102040.88;5045545;28;11560;-68
2022/03/04 07:36:24;;;;;;;;;36.00;32.50;;;;;3.97;64.50;102036.09;5043361;28;11694;-67
2022/03/04 07:38:51;;;;;;;;;36.25;31.25;;;;;3.60;65.46;102042.50;5033095;28;11637;-67
2022/03/04 07:41:17;;;;;;;;;34.75;31.50;;;;;3.38;66.40;102043.22;5046139;28;11586;-67
2022/03/04 07:43:44;;;;;;;;;34.75;27.75;;;;;3.35;66.89;102038.09;5051650;28;11655;-68
2022/03/04 07:46:12;;;;;;;;;33.00;24.75;;;;;3.64;66.73;102047.50;5044263;28;11607;-68
2022/03/04 07:48:39;;;;;;;;;31.75;28.00;;;;;3.54;66.17;102040.28;5032589;28;12262;-68
2022/03/04 07:51:05;;;;;;;;;29.75;25.75;;;;;3.74;66.71;102045.00;5039658;28;11601;-67
2022/03/04 07:53:32;;;;;;;;;32.75;28.25;;;;;3.61;66.34;102042.38;5031297;28;12305;-67
2022/03/04 07:55:58;;;;;;;;;27.25;27.00;;;;;3.89;65.86;102040.31;5047323;28;11595;-68
2022/03/04 07:58:25;;;;;;;;;39.25;30.50;;;;;3.95;64.71;102039.81;5032290;28;11569;-67
2022/03/04 08:00:51;;;;;;;;;30.25;28.25;;;;;4.17;65.15;102044.41;5038952;28;11570;-68
2022/03/04 08:03:38;;;;;;;;;26.00;24.00;;;;;4.39;63.34;102051.66;5047818;28;11637;-68
2022/03/04 08:06:05;;;;;;;;;38.25;29.25;;;;;4.67;62.91;102053.88;5042147;28;11574;-68
2022/03/04 08:08:31;;;;;;;;;41.75;33.75;;;;;4.81;61.82;102058.16;5042027;28;11591;-68
2022/03/04 08:10:59;;;;;;;;;38.00;29.75;;;;;4.73;61.81;102050.72;5039493;28;11572;-68
2022/03/04 08:13:25;;;;;;;;;25.00;25.00;;;;;4.99;60.76;102050.47;5041147;28;11586;-68
2022/03/04 08:15:52;;;;;;;;;28.25;24.75;;;;;5.24;60.51;102056.44;5041040;28;11565;-68
2022/03/04 08:18:19;;;;;;;;;34.25;30.00;;;;;5.73;58.89;102054.22;5048464;28;11565;-68
2022/03/04 08:20:45;;;;;;;;;34.25;29.50;;;;;5.73;57.43;102057.78;5039949;28;11610;-70
2022/03/04 08:23:12;;;;;;;;;31.25;28.00;;;;;5.52;57.99;102060.38;5030228;28;11572;-68
2022/03/04 08:25:39;;;;;;;;;34.50;29.00;;;;;5.98;57.53;102050.38;5039974;28;11541;-68
2022/03/04 08:28:06;;;;;;;;;35.75;29.75;;;;;5.96;57.02;102063.09;5051910;28;11629;-69
2022/03/04 08:30:32;;;;;;;;;28.75;24.00;;;;;6.30;56.13;102056.53;5047310;28;11591;-69
2022/03/04 08:33:00;;;;;;;;;32.25;30.75;;;;;6.50;55.60;102070.13;5030999;28;11408;-70
2022/03/04 08:35:26;;;;;;;;;28.75;23.75;;;;;6.16;55.64;102064.91;5032021;28;11571;-72
2022/03/04 08:37:53;;;;;;;;;31.00;29.75;;;;;6.51;55.86;102064.59;5043443;28;11553;-70
2022/03/04 08:40:20;;;;;;;;;38.75;33.50;;;;;6.68;53.95;102065.81;5049313;28;11609;-70
2022/03/04 08:42:47;;;;;;;;;31.25;30.00;;;;;6.47;54.46;102071.25;5035498;28;11591;-71
2022/03/04 08:45:15;;;;;;;;;38.25;32.75;;;;;6.48;54.93;102070.25;5031313;28;11504;-69
2022/03/04 08:47:45;;;;;;;;;33.25;30.75;;;;;7.02;53.64;102075.34;5029993;28;11630;-68
2022/03/04 08:50:14;;;;;;;;;31.75;30.00;;;;;7.49;53.47;102061.31;5029979;28;11538;-69
2022/03/04 08:52:41;;;;;;;;;36.00;33.50;;;;;7.55;51.90;102068.84;5031144;28;12268;-70
2022/03/04 08:55:14;;;;;;;;;31.50;27.75;;;;;7.40;51.41;102069.22;5031374;28;11622;-70
2022/03/04 08:57:45;;;;;;;;;33.25;30.00;;;;;7.35;51.63;102081.41;5022902;28;11539;-71
2022/03/04 09:00:14;;;;;;;;;27.50;24.75;;;;;7.80;50.82;102076.38;5038653;28;11503;-70
2022/03/04 09:02:41;;;;;;;;;33.75;31.50;;;;;7.58;51.31;102079.31;5046270;28;11528;-70
2022/03/04 09:05:08;;;;;;;;;29.00;25.50;;;;;7.94;50.08;102075.97;5036153;28;11501;-69
2022/03/04 09:07:35;;;;;;;;;39.75;36.25;;;;;7.92;49.95;102075.25;5040834;28;11641;-71
2022/03/04 09:10:03;;;;;;;;;33.75;30.75;;;;;8.14;50.15;102070.56;5048811;28;11556;-70
2022/03/04 09:12:30;;;;;;;;;37.75;31.00;;;;;7.84;50.00;102074.25;5047627;28;12244;-70
2022/03/04 09:14:56;;;;;;;;;34.00;28.50;;;;;7.89;49.57;102075.53;5031949;28;12232;-70
2022/03/04 09:17:23;;;;;;;;;29.50;26.75;;;;;7.99;49.29;102083.63;5039176;28;11536;-69
2022/03/04 09:19:50;;;;;;;;;36.25;32.75;;;;;8.31;48.79;102069.84;5042578;28;11544;-70
2022/03/04 09:22:23;;;;;;;;;35.00;30.00;;;;;8.35;48.50;102067.72;5049330;28;11531;-70
2022/03/04 09:24:49;;;;;;;;;32.75;27.75;;;;;8.12;49.18;102080.66;5047933;28;11600;-69
2022/03/04 09:27:16;;;;;;;;;35.75;30.00;;;;;8.31;48.25;102080.63;5041740;28;11493;-68
2022/03/04 09:29:42;;;;;;;;;40.50;30.75;;;;;8.49;47.61;102081.63;5049629;28;11630;-68
2022/03/04 09:32:09;;;;;;;;;31.75;29.25;;;;;8.26;48.00;102080.22;5047539;28;12225;-70
2022/03/04 09:34:36;;;;;;;;;30.50;28.75;;;;;8.76;47.10;102085.41;5040494;28;12268;-69
2022/03/04 09:37:02;;;;;;;;;29.50;28.75;;;;;8.69;46.95;102081.59;5027432;28;11574;-69
2022/03/04 09:39:29;;;;;;;;;33.50;29.75;;;;;8.91;46.72;102081.22;5030948;28;11550;-69
2022/03/04 09:41:56;;;;;;;;;30.00;28.50;;;;;8.76;46.41;102083.56;5032820;28;11644;-69
2022/03/04 09:44:22;;;;;;;;;29.25;27.50;;;;;8.77;46.09;102085.25;5059244;28;11549;-69
2022/03/04 09:46:49;;;;;;;;;33.25;28.00;;;;;8.83;45.98;102084.66;5050487;28;11537;-68
2022/03/04 09:49:27;;;;;;;;;29.50;26.75;;;;;8.82;46.22;102076.72;5048322;28;11643;-70
2022/03/04 09:51:53;;;;;;;;;28.25;24.75;;;;;9.00;45.57;102079.50;5036721;28;11565;-69
2022/03/04 09:54:20;;;;;;;;;30.00;23.00;;;;;9.09;46.33;102087.56;5051736;28;11255;-69
2022/03/04 09:56:46;;;;;;;;;32.75;25.00;;;;;8.85;46.48;102074.56;5043571;28;11438;-69
2022/03/04 09:59:13;;;;;;;;;27.50;25.50;;;;;9.23;46.42;102084.38;5041880;28;11176;-69
2022/03/04 10:01:40;;;;;;;;;26.00;24.25;;;;;9.34;45.64;102083.31;5043475;28;12063;-69
2022/03/04 10:04:07;;;;;;;;;36.00;32.00;;;;;9.10;45.54;102074.91;5041425;28;11502;-68
2022/03/04 10:06:38;;;;;;;;;34.75;28.75;;;;;9.24;45.91;102071.72;5043579;28;11553;-69
2022/03/04 10:09:05;;;;;;;;;31.25;28.00;;;;;9.25;45.56;102071.56;5042273;28;11599;-69
2022/03/04 10:11:34;;;;;;;;;26.50;24.25;;;;;9.23;45.84;102070.00;5043250;28;11524;-69
2022/03/04 10:14:07;;;;;;;;;27.25;26.50;;;;;9.28;45.50;102069.56;5042780;28;11366;-69
2022/03/04 10:16:40;;;;;;;;;28.50;26.50;;;;;9.22;45.51;102065.63;5065211;23;11735;-70
2022/03/04 10:19:18;;;;;;;;;28.00;23.75;;;;;9.39;45.53;102064.78;5059067;28;11637;-71
2022/03/04 10:21:54;;;;;;;;;30.50;26.00;;;;;9.41;44.85;102067.34;5055036;28;11311;-71
2022/03/04 10:24:29;;;;;;;;;29.75;24.50;;;;;9.40;45.65;102060.22;5048922;28;11050;-69
2022/03/04 10:27:09;;;;;;;;;28.00;23.50;;;;;9.72;45.48;102057.06;5040209;28;11205;-70
2022/03/04 10:29:39;;;;;;;;;31.50;25.00;;;;;9.57;44.81;102059.41;5051590;28;11873;-70
2022/03/04 10:32:11;;;;;;;;;27.75;25.00;;;;;9.34;45.95;102061.69;5055232;28;11333;-70
2022/03/04 10:34:56;;;;;;;;;31.75;28.00;;;;;9.51;45.59;102060.88;5037763;28;11179;-68
2022/03/04 10:37:58;;;;;;;;;28.00;25.00;;;;;9.74;44.93;102065.84;5035186;28;11227;-68
2022/03/04 10:40:30;;;;;;;;;26.00;21.00;;;;;9.83;44.10;102059.50;4981514;28;11302;-70
2022/03/04 10:43:05;;;;;;;;;31.00;27.25;;;;;9.93;44.47;102062.16;5029597;28;10802;-68
2022/03/04 10:45:42;;;;;;;;;33.25;28.00;;;;;9.73;44.29;102062.31;5036450;28;10979;-69
2022/03/04 10:48:10;;;;;;;;;22.50;21.25;;;;;9.76;44.84;102053.88;5050727;28;11265;-70
2022/03/04 10:50:36;;;;;;;;;34.25;23.75;;;;;9.59;44.22;102059.25;5051301;28;10860;-68
2022/03/04 10:53:10;;;;;;;;;37.75;33.50;;;;;9.50;44.56;102061.88;5052245;28;11164;-69
2022/03/04 10:55:47;;;;;;;;;24.00;18.25;;;;;9.29;44.61;102063.16;5050788;28;11518;-68
2022/03/04 10:58:35;;;;;;;;;31.50;28.50;;;;;9.38;44.86;102064.94;5056232;28;10871;-71
2022/03/04 11:01:12;;;;;;;;;27.75;25.25;;;;;9.07;45.07;102059.00;5033144;28;11454;-69
2022/03/04 11:03:41;;;;;;;;;28.00;27.25;;;;;9.07;44.85;102056.28;5052452;28;11492;-69
2022/03/04 11:06:14;;;;;;;;;35.75;28.50;;;;;9.07;45.09;102057.13;5046547;28;11451;-68
2022/03/04 11:08:42;;;;;;;;;32.75;30.25;;;;;9.24;44.71;102053.66;5056566;28;11473;-68
2022/03/04 11:11:09;;;;;;;;;32.00;28.00;;;;;9.20;43.82;102049.56;5054487;28;12258;-67
2022/03/04 11:13:37;;;;;;;;;30.00;25.00;;;;;9.29;44.49;102053.19;5059951;28;11199;-68
2022/03/04 11:16:05;;;;;;;;;29.50;26.75;;;;;9.29;44.52;102053.19;5061056;28;11500;-68
2022/03/04 11:18:33;;;;;;;;;33.25;29.75;;;;;9.23;44.23;102051.09;5061070;28;12148;-69
2022/03/04 11:21:00;;;;;;;;;37.25;33.00;;;;;8.86;44.73;102054.66;5051487;28;11636;-70